Aviation Digital Data Service (ADDS)

Output produced by METARs form (1351 UTC 25 June 2019)
found at http://www.aviationweather.gov/metar/data/
 
KILG 251326Z 32010KT 10SM BKN022 BKN027 BKN047 27/22 A2984 RMK AO2 T02670217 PNO $
KILG 251123Z 2512/2612 22006KT P6SM BKN035 
     FM251500 28010G18KT P6SM SCT045 
     FM260000 29008KT P6SM BKN250 
     FM260400 32004KT P6SM SCT250